createdAt,value
2023-03-08T00:00:15.342Z,3.50
2023-03-08T00:05:18.301Z,3.40
2023-03-08T00:10:22.077Z,3.30
2023-03-08T00:15:25.435Z,3.20
2023-03-08T00:20:28.438Z,3.20
2023-03-08T00:25:32.090Z,3.20
2023-03-08T00:30:35.017Z,3.20
2023-03-08T00:35:38.035Z,3.10
2023-03-08T00:40:41.073Z,3.10
2023-03-08T00:45:44.187Z,3.10
2023-03-08T00:50:47.768Z,3.00
2023-03-08T00:55:57.610Z,2.90
2023-03-08T01:01:00.698Z,2.80
2023-03-08T01:06:13.919Z,2.70
2023-03-08T01:11:24.561Z,2.70
2023-03-08T01:16:31.852Z,2.80
2023-03-08T01:21:34.870Z,2.90
2023-03-08T01:26:38.096Z,2.80
2023-03-08T01:31:41.008Z,3.00
2023-03-08T01:36:44.026Z,3.40
2023-03-08T01:41:48.370Z,3.70
2023-03-08T01:46:51.449Z,4.10
2023-03-08T01:52:06.979Z,4.30
2023-03-08T01:57:20.601Z,4.30
2023-03-08T02:02:29.800Z,4.20
2023-03-08T02:07:32.823Z,4.10
2023-03-08T02:12:37.120Z,3.90
2023-03-08T02:17:42.812Z,3.70
2023-03-08T02:22:47.247Z,3.60
2023-03-08T02:27:53.538Z,3.40
2023-03-08T02:32:56.648Z,3.30
2023-03-08T02:38:00.241Z,3.10
2023-03-08T02:43:03.265Z,3.10
2023-03-08T02:48:06.669Z,3.00
2023-03-08T02:53:09.824Z,3.00
2023-03-08T02:58:12.848Z,3.20
2023-03-08T03:03:17.485Z,3.40
2023-03-08T03:08:20.527Z,3.60
2023-03-08T03:13:23.510Z,3.80
2023-03-08T03:18:26.866Z,4.00
2023-03-08T03:23:30.002Z,4.10
2023-03-08T03:28:33.179Z,4.20
2023-03-08T03:33:36.600Z,4.30
2023-03-08T03:38:40.545Z,4.50
2023-03-08T03:43:44.258Z,4.60
2023-03-08T03:48:47.914Z,4.70
2023-03-08T03:53:50.891Z,4.70
2023-03-08T03:58:55.028Z,4.70
2023-03-08T04:03:59.109Z,4.70
2023-03-08T04:09:06.670Z,4.70
2023-03-08T04:14:11.446Z,4.70
2023-03-08T04:19:14.453Z,4.60
2023-03-08T04:24:17.532Z,4.60
2023-03-08T04:29:21.233Z,4.60
2023-03-08T04:34:24.237Z,4.60
2023-03-08T04:39:27.185Z,4.50
2023-03-08T04:44:30.467Z,4.50
2023-03-08T04:49:33.559Z,4.50
2023-03-08T04:54:36.280Z,4.50
2023-03-08T04:59:39.303Z,4.60
2023-03-08T05:04:42.478Z,4.70
2023-03-08T05:09:45.308Z,4.70
2023-03-08T05:14:48.305Z,4.80
2023-03-08T05:19:51.348Z,4.80
2023-03-08T05:24:54.840Z,4.90
2023-03-08T05:29:57.817Z,4.90
2023-03-08T05:35:00.577Z,4.80
2023-03-08T05:40:06.516Z,4.90
2023-03-08T05:45:10.149Z,5.00
2023-03-08T05:50:13.492Z,5.00
2023-03-08T05:55:16.573Z,5.30
2023-03-08T06:00:19.902Z,5.40
2023-03-08T06:05:22.895Z,5.70
2023-03-08T06:10:26.388Z,5.80
2023-03-08T06:15:29.388Z,6.00
2023-03-08T06:20:33.001Z,6.10
2023-03-08T06:25:35.952Z,6.30
2023-03-08T06:30:39.421Z,6.50
2023-03-08T06:35:42.639Z,6.70
2023-03-08T06:40:45.851Z,6.90
2023-03-08T06:45:49.127Z,7.20
2023-03-08T06:50:52.164Z,7.40
2023-03-08T06:55:55.256Z,7.60
2023-03-08T07:01:00.131Z,7.80
2023-03-08T07:06:09.618Z,7.80
2023-03-08T07:11:12.412Z,7.70
2023-03-08T07:16:15.713Z,7.70
2023-03-08T07:21:18.762Z,7.60
2023-03-08T07:26:21.800Z,7.60
2023-03-08T07:31:26.667Z,7.60
2023-03-08T07:36:29.596Z,7.80
2023-03-08T07:41:34.804Z,7.90
2023-03-08T07:46:37.793Z,8.00
2023-03-08T07:51:40.924Z,8.10
2023-03-08T07:56:43.867Z,8.30
2023-03-08T08:01:46.838Z,8.40
2023-03-08T08:06:50.377Z,8.50
2023-03-08T08:11:53.311Z,8.60
2023-03-08T08:16:57.453Z,8.60
2023-03-08T08:22:00.919Z,8.90
2023-03-08T08:27:04.387Z,9.00
2023-03-08T08:32:08.409Z,9.20
2023-03-08T08:37:11.520Z,9.40
2023-03-08T08:42:14.537Z,9.70
2023-03-08T08:47:17.569Z,10.10
2023-03-08T08:52:20.659Z,10.50
2023-03-08T08:57:23.693Z,10.60
2023-03-08T09:02:26.822Z,10.50
2023-03-08T09:07:29.794Z,10.40
2023-03-08T09:12:32.729Z,10.20
2023-03-08T09:17:35.726Z,10.40
2023-03-08T09:22:39.663Z,10.60
2023-03-08T09:27:43.053Z,10.80
2023-03-08T09:32:46.189Z,10.80
2023-03-08T09:37:49.135Z,11.30
2023-03-08T09:42:54.525Z,11.90
2023-03-08T09:48:30.107Z,12.30
2023-03-08T09:53:46.861Z,12.60
2023-03-08T09:59:14.284Z,12.90
2023-03-08T10:05:14.406Z,12.90
2023-03-08T10:10:54.023Z,12.80
2023-03-08T10:16:36.043Z,13.00
2023-03-08T10:21:40.828Z,12.90
2023-03-08T10:26:45.150Z,12.60
2023-03-08T10:31:48.616Z,12.50
2023-03-08T10:37:06.474Z,12.70
2023-03-08T10:42:16.739Z,12.90
2023-03-08T10:47:34.752Z,13.10
2023-03-08T10:52:37.767Z,13.50
2023-03-08T10:57:45.763Z,13.60
2023-03-08T11:02:49.317Z,13.70
2023-03-08T11:08:01.185Z,13.80
2023-03-08T11:13:19.320Z,13.80
2023-03-08T11:19:17.200Z,14.00
2023-03-08T11:24:47.786Z,14.10
2023-03-08T11:30:50.629Z,14.30
2023-03-08T11:36:27.667Z,14.70
2023-03-08T11:42:08.224Z,15.10
2023-03-08T11:47:38.571Z,15.40
2023-03-08T11:53:09.756Z,15.20
2023-03-08T11:58:28.941Z,14.70
2023-03-08T12:03:39.077Z,14.20
2023-03-08T12:09:01.876Z,13.60
2023-03-08T12:14:34.034Z,13.20
2023-03-08T12:19:46.602Z,13.00
2023-03-08T12:25:02.803Z,12.80
2023-03-08T12:30:50.917Z,12.70
2023-03-08T12:36:01.351Z,12.70
2023-03-08T12:41:20.185Z,12.50
2023-03-08T12:46:23.300Z,12.30
2023-03-08T12:51:35.702Z,12.20
2023-03-08T12:56:52.494Z,12.30
2023-03-08T13:01:58.502Z,12.30
2023-03-08T13:07:33.626Z,12.50
2023-03-08T13:13:26.776Z,12.90
2023-03-08T13:18:36.919Z,12.90
2023-03-08T13:24:17.201Z,12.80
2023-03-08T13:29:21.687Z,12.70
2023-03-08T13:34:32.125Z,12.70
2023-03-08T13:39:34.866Z,12.80
2023-03-08T13:44:38.135Z,12.80
2023-03-08T13:49:45.643Z,12.70
2023-03-08T13:55:04.938Z,12.60
2023-03-08T14:00:32.563Z,12.60
2023-03-08T14:05:43.916Z,12.60
2023-03-08T14:11:01.030Z,12.60
2023-03-08T14:16:07.805Z,12.70
2023-03-08T14:21:29.416Z,12.60
2023-03-08T14:26:53.230Z,12.70
2023-03-08T14:32:01.761Z,12.80
2023-03-08T14:37:22.690Z,12.80
2023-03-08T14:42:30.635Z,12.80
2023-03-08T14:47:35.561Z,12.70
2023-03-08T14:52:48.681Z,12.60
2023-03-08T14:58:28.080Z,12.50
2023-03-08T15:03:35.324Z,12.30
2023-03-08T15:08:38.192Z,12.10
2023-03-08T15:13:41.351Z,12.00
2023-03-08T15:18:44.369Z,12.00
2023-03-08T15:23:49.198Z,12.00
2023-03-08T15:28:52.280Z,11.90
2023-03-08T15:33:55.241Z,11.90
2023-03-08T15:38:59.729Z,11.90
2023-03-08T15:44:02.460Z,11.80
2023-03-08T15:49:06.288Z,11.70
2023-03-08T15:54:11.384Z,11.60
2023-03-08T15:59:14.399Z,11.60
2023-03-08T16:04:17.453Z,11.60
2023-03-08T16:09:20.340Z,11.50
2023-03-08T16:14:23.414Z,11.50
2023-03-08T16:19:26.494Z,11.50
2023-03-08T16:24:29.761Z,11.50
2023-03-08T16:29:33.658Z,11.40
2023-03-08T16:34:37.788Z,11.40
2023-03-08T16:39:40.678Z,11.40
2023-03-08T16:44:53.571Z,11.40
2023-03-08T16:49:56.417Z,11.30
2023-03-08T16:55:05.461Z,11.30
2023-03-08T17:00:12.398Z,11.20
2023-03-08T17:05:15.371Z,11.20
2023-03-08T17:10:18.483Z,11.20
2023-03-08T17:15:21.639Z,11.20
2023-03-08T17:20:24.937Z,11.20
2023-03-08T17:25:41.224Z,11.20
2023-03-08T17:30:44.681Z,11.20
2023-03-08T17:35:47.737Z,11.20
2023-03-08T17:40:50.791Z,11.20
2023-03-08T17:46:03.721Z,11.20
2023-03-08T17:51:13.923Z,11.20
2023-03-08T17:56:29.259Z,11.30
2023-03-08T18:01:33.269Z,11.30
2023-03-08T18:06:40.336Z,11.30
2023-03-08T18:11:43.814Z,11.40
2023-03-08T18:16:46.760Z,11.50
2023-03-08T18:21:54.299Z,11.50
2023-03-08T18:26:58.106Z,11.50
2023-03-08T18:32:02.485Z,11.50
2023-03-08T18:37:07.051Z,11.50
2023-03-08T18:42:41.451Z,11.40
2023-03-08T18:54:03.974Z,11.20
2023-03-08T18:59:08.570Z,11.10
2023-03-08T19:04:11.799Z,11.00
2023-03-08T19:09:17.697Z,11.00
2023-03-08T19:14:21.109Z,11.10
2023-03-08T19:19:24.261Z,11.10
2023-03-08T19:24:27.699Z,11.10
2023-03-08T19:29:32.599Z,11.20
2023-03-08T19:34:40.450Z,11.20
2023-03-08T19:39:43.801Z,11.30
2023-03-08T19:44:48.537Z,11.30
2023-03-08T19:49:51.770Z,11.30
2023-03-08T19:54:54.874Z,11.20
2023-03-08T19:59:59.561Z,11.10
2023-03-08T20:05:02.564Z,11.10
2023-03-08T20:10:15.702Z,11.10
2023-03-08T20:15:19.160Z,11.10
2023-03-08T20:20:22.559Z,11.00
2023-03-08T20:25:25.493Z,11.00
2023-03-08T20:30:29.332Z,10.90
2023-03-08T20:35:32.449Z,10.80
2023-03-08T20:40:36.440Z,10.70
2023-03-08T20:45:40.505Z,10.80
2023-03-08T20:50:43.836Z,10.80
2023-03-08T20:55:46.721Z,10.80
2023-03-08T21:00:50.266Z,10.80
2023-03-08T21:05:53.571Z,10.90
2023-03-08T21:10:59.472Z,11.00
2023-03-08T21:16:06.302Z,11.00
2023-03-08T21:21:29.126Z,11.10
2023-03-08T21:26:33.471Z,11.20
2023-03-08T21:31:41.634Z,11.00
2023-03-08T21:36:45.329Z,10.90
2023-03-08T21:41:49.182Z,10.80
2023-03-08T21:46:52.660Z,10.90
2023-03-08T21:51:58.053Z,11.00
2023-03-08T21:57:01.134Z,11.10
2023-03-08T22:02:04.199Z,11.20
2023-03-08T22:07:07.308Z,11.40
2023-03-08T22:12:10.588Z,11.50
2023-03-08T22:17:13.996Z,11.60
2023-03-08T22:22:17.916Z,11.70
2023-03-08T22:27:23.124Z,11.70
2023-03-08T22:32:26.135Z,11.70
2023-03-08T22:37:29.103Z,11.90
2023-03-08T22:42:34.123Z,12.00
2023-03-08T22:47:37.290Z,12.00
2023-03-08T22:52:40.758Z,12.00
2023-03-08T22:57:44.373Z,12.00
2023-03-08T23:02:49.028Z,12.00
2023-03-08T23:07:53.309Z,11.90
2023-03-08T23:12:56.271Z,11.90
2023-03-08T23:17:59.353Z,11.90
2023-03-08T23:23:02.275Z,11.90
2023-03-08T23:28:05.726Z,11.90
2023-03-08T23:33:08.850Z,11.80
2023-03-08T23:38:11.985Z,11.80
2023-03-08T23:43:14.933Z,11.80
2023-03-08T23:48:17.841Z,11.80
2023-03-08T23:53:20.922Z,11.80
2023-03-08T23:58:23.869Z,11.90
